ENGC

Gullfax Platform Airport

Norway
METAR ENGC 172050Z 21015KT 9999 FEW015TCU SCT020 05/03 Q1012 W06/S5
Observed Flight Rules
Feb-17 @ 20:50 UTC (41 minutes ago) Visual Flight Rules
Wind Visibility Clouds
210° at 15 knots 10,000+ meters
  • Few at 1,500' AGL
  • Scattered at 2,000' AGL
Temperatures Readings
Current 5°C / 41°F
Dewpoint 3°C / 37°F
Humidity 87%
Altimeter 29.88" Hg
Pressure 1012 hPa
Elevation 10
METAR ENGC 172050Z 21015KT 9999 FEW015TCU SCT020 05/03 Q1012 W06/S5
Observed Flight Rules
Feb-17 @ 20:50 UTC
(41 minutes ago)
VFR
Wind Visibility
210° at 15 knots 10,000+ meters
Clouds
  • Few at 1,500' AGL
  • Scattered at 2,000' AGL
Temperature Dewpoint
5°C / 41°F 3°C / 37°F
Humidity Altimeter Pressure
87% 29.88" Hg 1012 hPa